sensor_id;sensor_type;location;lat;lon;timestamp;temperature;humidity
13976;DHT22;7062;49.792;9.946;2023-06-22T00:02:14;24.10;99.90
13976;DHT22;7062;49.792;9.946;2023-06-22T00:04:39;24.10;99.90
13976;DHT22;7062;49.792;9.946;2023-06-22T00:07:05;24.00;99.90
13976;DHT22;7062;49.792;9.946;2023-06-22T00:09:31;24.00;99.90
13976;DHT22;7062;49.792;9.946;2023-06-22T00:11:57;24.00;99.90
13976;DHT22;7062;49.792;9.946;2023-06-22T00:14:23;24.00;99.90
13976;DHT22;7062;49.792;9.946;2023-06-22T00:16:48;24.10;99.90
13976;DHT22;7062;49.792;9.946;2023-06-22T00:19:15;24.10;99.90
13976;DHT22;7062;49.792;9.946;2023-06-22T00:21:41;24.20;99.90
13976;DHT22;7062;49.792;9.946;2023-06-22T00:24:08;24.20;99.90
13976;DHT22;7062;49.792;9.946;2023-06-22T00:26:33;24.20;99.90
13976;DHT22;7062;49.792;9.946;2023-06-22T00:28:59;24.20;99.90
13976;DHT22;7062;49.792;9.946;2023-06-22T00:31:25;24.20;99.90
13976;DHT22;7062;49.792;9.946;2023-06-22T00:33:50;24.20;99.90
13976;DHT22;7062;49.792;9.946;2023-06-22T00:36:16;24.30;99.90
13976;DHT22;7062;49.792;9.946;2023-06-22T00:38:43;24.30;99.90
13976;DHT22;7062;49.792;9.946;2023-06-22T00:41:09;24.30;99.90
13976;DHT22;7062;49.792;9.946;2023-06-22T00:43:35;24.30;99.90
13976;DHT22;7062;49.792;9.946;2023-06-22T00:46:00;24.30;99.90
13976;DHT22;7062;49.792;9.946;2023-06-22T00:48:26;24.30;99.90
13976;DHT22;7062;49.792;9.946;2023-06-22T00:50:52;24.30;99.90
13976;DHT22;7062;49.792;9.946;2023-06-22T00:53:19;24.20;99.90
13976;DHT22;7062;49.792;9.946;2023-06-22T00:55:45;24.20;99.90
13976;DHT22;7062;49.792;9.946;2023-06-22T00:58:13;24.20;99.90
13976;DHT22;7062;49.792;9.946;2023-06-22T01:00:42;24.20;99.90
13976;DHT22;7062;49.792;9.946;2023-06-22T01:03:08;24.20;99.90
13976;DHT22;7062;49.792;9.946;2023-06-22T01:05:35;24.10;99.90
13976;DHT22;7062;49.792;9.946;2023-06-22T01:10:43;24.10;99.90
13976;DHT22;7062;49.792;9.946;2023-06-22T01:16:12;24.10;99.90
13976;DHT22;7062;49.792;9.946;2023-06-22T01:18:41;24.10;99.90
13976;DHT22;7062;49.792;9.946;2023-06-22T01:21:13;24.10;99.90
13976;DHT22;7062;49.792;9.946;2023-06-22T01:29:11;24.00;99.90
13976;DHT22;7062;49.792;9.946;2023-06-22T01:31:39;24.00;99.90
13976;DHT22;7062;49.792;9.946;2023-06-22T01:34:06;24.00;99.90
13976;DHT22;7062;49.792;9.946;2023-06-22T01:36:34;24.00;99.90
13976;DHT22;7062;49.792;9.946;2023-06-22T01:39:02;23.90;99.90
13976;DHT22;7062;49.792;9.946;2023-06-22T01:41:30;23.80;99.90
13976;DHT22;7062;49.792;9.946;2023-06-22T01:43:56;23.70;99.90
13976;DHT22;7062;49.792;9.946;2023-06-22T01:46:23;23.70;99.90
13976;DHT22;7062;49.792;9.946;2023-06-22T01:48:49;23.80;99.90
13976;DHT22;7062;49.792;9.946;2023-06-22T01:51:16;23.60;99.90
13976;DHT22;7062;49.792;9.946;2023-06-22T01:53:41;23.40;99.90
13976;DHT22;7062;49.792;9.946;2023-06-22T01:56:08;23.00;99.90
13976;DHT22;7062;49.792;9.946;2023-06-22T01:58:37;22.90;99.90
13976;DHT22;7062;49.792;9.946;2023-06-22T02:01:12;23.00;99.90
13976;DHT22;7062;49.792;9.946;2023-06-22T02:03:57;23.10;99.90
13976;DHT22;7062;49.792;9.946;2023-06-22T02:06:35;23.10;99.90
13976;DHT22;7062;49.792;9.946;2023-06-22T02:09:06;23.10;99.90
13976;DHT22;7062;49.792;9.946;2023-06-22T02:11:33;23.00;99.90
13976;DHT22;7062;49.792;9.946;2023-06-22T02:14:00;23.10;99.90
13976;DHT22;7062;49.792;9.946;2023-06-22T02:16:26;23.10;99.90
13976;DHT22;7062;49.792;9.946;2023-06-22T02:18:55;23.20;99.90
13976;DHT22;7062;49.792;9.946;2023-06-22T02:21:23;23.20;99.90
13976;DHT22;7062;49.792;9.946;2023-06-22T02:23:49;23.20;99.90
13976;DHT22;7062;49.792;9.946;2023-06-22T02:26:16;23.20;99.90
13976;DHT22;7062;49.792;9.946;2023-06-22T02:28:42;23.30;99.90
13976;DHT22;7062;49.792;9.946;2023-06-22T02:31:08;23.30;99.90
13976;DHT22;7062;49.792;9.946;2023-06-22T02:33:34;23.30;99.90
13976;DHT22;7062;49.792;9.946;2023-06-22T02:36:00;23.40;99.90
13976;DHT22;7062;49.792;9.946;2023-06-22T02:38:25;23.40;99.90
13976;DHT22;7062;49.792;9.946;2023-06-22T02:40:51;23.40;99.90
13976;DHT22;7062;49.792;9.946;2023-06-22T02:43:17;23.40;99.90
13976;DHT22;7062;49.792;9.946;2023-06-22T02:45:42;23.30;99.90
13976;DHT22;7062;49.792;9.946;2023-06-22T02:48:08;23.10;99.90
13976;DHT22;7062;49.792;9.946;2023-06-22T02:50:35;23.00;99.90
13976;DHT22;7062;49.792;9.946;2023-06-22T02:53:01;23.00;99.90
13976;DHT22;7062;49.792;9.946;2023-06-22T02:55:26;23.00;99.90
13976;DHT22;7062;49.792;9.946;2023-06-22T02:57:52;23.00;99.90
13976;DHT22;7062;49.792;9.946;2023-06-22T03:00:18;23.00;99.90
13976;DHT22;7062;49.792;9.946;2023-06-22T03:02:46;22.90;99.90
13976;DHT22;7062;49.792;9.946;2023-06-22T03:05:12;22.90;99.90
13976;DHT22;7062;49.792;9.946;2023-06-22T03:07:42;22.80;99.90
13976;DHT22;7062;49.792;9.946;2023-06-22T03:10:12;22.80;99.90
13976;DHT22;7062;49.792;9.946;2023-06-22T03:12:38;22.80;99.90
13976;DHT22;7062;49.792;9.946;2023-06-22T03:15:06;22.90;99.90
13976;DHT22;7062;49.792;9.946;2023-06-22T03:17:32;22.90;99.90
13976;DHT22;7062;49.792;9.946;2023-06-22T03:19:58;22.80;99.90
13976;DHT22;7062;49.792;9.946;2023-06-22T03:22:24;22.70;99.90
13976;DHT22;7062;49.792;9.946;2023-06-22T03:24:49;22.70;99.90
13976;DHT22;7062;49.792;9.946;2023-06-22T03:27:15;22.70;99.90
13976;DHT22;7062;49.792;9.946;2023-06-22T03:29:40;22.80;99.90
13976;DHT22;7062;49.792;9.946;2023-06-22T03:32:06;22.90;99.90
13976;DHT22;7062;49.792;9.946;2023-06-22T03:34:32;23.00;99.90
13976;DHT22;7062;49.792;9.946;2023-06-22T03:37:04;23.20;99.90
13976;DHT22;7062;49.792;9.946;2023-06-22T03:39:29;23.20;99.90
13976;DHT22;7062;49.792;9.946;2023-06-22T03:41:55;23.30;99.90
13976;DHT22;7062;49.792;9.946;2023-06-22T03:44:21;23.30;99.90
13976;DHT22;7062;49.792;9.946;2023-06-22T03:46:46;23.40;99.90
13976;DHT22;7062;49.792;9.946;2023-06-22T03:49:12;23.40;99.90
13976;DHT22;7062;49.792;9.946;2023-06-22T03:51:38;23.40;99.90
13976;DHT22;7062;49.792;9.946;2023-06-22T03:54:04;23.50;99.90
13976;DHT22;7062;49.792;9.946;2023-06-22T03:56:29;23.40;99.90
13976;DHT22;7062;49.792;9.946;2023-06-22T03:58:55;23.40;99.90
13976;DHT22;7062;49.792;9.946;2023-06-22T04:01:21;23.50;99.90
13976;DHT22;7062;49.792;9.946;2023-06-22T04:03:47;23.50;99.90
13976;DHT22;7062;49.792;9.946;2023-06-22T04:06:15;23.50;99.90
13976;DHT22;7062;49.792;9.946;2023-06-22T04:08:40;23.40;99.90
13976;DHT22;7062;49.792;9.946;2023-06-22T04:11:06;23.30;99.90
13976;DHT22;7062;49.792;9.946;2023-06-22T04:13:32;23.30;99.90
13976;DHT22;7062;49.792;9.946;2023-06-22T04:15:57;23.30;99.90
13976;DHT22;7062;49.792;9.946;2023-06-22T04:18:23;23.30;99.90
13976;DHT22;7062;49.792;9.946;2023-06-22T04:20:49;23.40;99.90
13976;DHT22;7062;49.792;9.946;2023-06-22T04:23:14;23.40;99.90
13976;DHT22;7062;49.792;9.946;2023-06-22T04:25:40;23.40;99.90
13976;DHT22;7062;49.792;9.946;2023-06-22T04:28:06;23.40;99.90
13976;DHT22;7062;49.792;9.946;2023-06-22T04:30:37;23.40;99.90
13976;DHT22;7062;49.792;9.946;2023-06-22T04:33:12;23.50;99.90
13976;DHT22;7062;49.792;9.946;2023-06-22T04:35:38;23.50;99.90
13976;DHT22;7062;49.792;9.946;2023-06-22T04:38:06;23.50;99.90
13976;DHT22;7062;49.792;9.946;2023-06-22T04:40:32;23.50;99.90
13976;DHT22;7062;49.792;9.946;2023-06-22T04:42:58;23.50;99.90
13976;DHT22;7062;49.792;9.946;2023-06-22T04:45:28;23.50;99.90
13976;DHT22;7062;49.792;9.946;2023-06-22T04:47:54;23.60;99.90
13976;DHT22;7062;49.792;9.946;2023-06-22T04:50:20;23.60;99.90
13976;DHT22;7062;49.792;9.946;2023-06-22T04:52:47;23.60;99.90
13976;DHT22;7062;49.792;9.946;2023-06-22T04:55:14;23.60;99.90
13976;DHT22;7062;49.792;9.946;2023-06-22T04:57:47;23.60;99.90
13976;DHT22;7062;49.792;9.946;2023-06-22T05:00:19;23.60;99.90
13976;DHT22;7062;49.792;9.946;2023-06-22T05:02:48;23.60;99.90
13976;DHT22;7062;49.792;9.946;2023-06-22T05:05:14;23.60;99.90
13976;DHT22;7062;49.792;9.946;2023-06-22T05:07:45;23.60;99.90
13976;DHT22;7062;49.792;9.946;2023-06-22T05:10:13;23.60;99.90
13976;DHT22;7062;49.792;9.946;2023-06-22T05:12:40;23.60;99.90
13976;DHT22;7062;49.792;9.946;2023-06-22T05:15:07;23.60;99.90
13976;DHT22;7062;49.792;9.946;2023-06-22T05:17:33;23.70;99.90
13976;DHT22;7062;49.792;9.946;2023-06-22T05:19:59;23.70;99.90
13976;DHT22;7062;49.792;9.946;2023-06-22T05:22:25;23.70;99.90
13976;DHT22;7062;49.792;9.946;2023-06-22T05:24:50;23.70;99.90
13976;DHT22;7062;49.792;9.946;2023-06-22T05:27:16;23.70;99.90
13976;DHT22;7062;49.792;9.946;2023-06-22T05:29:41;23.70;99.90
13976;DHT22;7062;49.792;9.946;2023-06-22T05:32:10;23.70;99.90
13976;DHT22;7062;49.792;9.946;2023-06-22T05:34:36;23.70;99.90
13976;DHT22;7062;49.792;9.946;2023-06-22T05:37:02;23.70;99.90
13976;DHT22;7062;49.792;9.946;2023-06-22T05:39:28;23.70;99.90
13976;DHT22;7062;49.792;9.946;2023-06-22T05:41:54;23.80;99.90
13976;DHT22;7062;49.792;9.946;2023-06-22T05:44:19;23.80;99.90
13976;DHT22;7062;49.792;9.946;2023-06-22T05:46:45;23.80;99.90
13976;DHT22;7062;49.792;9.946;2023-06-22T05:49:15;23.70;99.90
13976;DHT22;7062;49.792;9.946;2023-06-22T05:51:42;23.70;99.90
13976;DHT22;7062;49.792;9.946;2023-06-22T05:54:07;23.70;99.90
13976;DHT22;7062;49.792;9.946;2023-06-22T05:56:34;23.70;99.90
13976;DHT22;7062;49.792;9.946;2023-06-22T05:59:00;23.70;99.90
13976;DHT22;7062;49.792;9.946;2023-06-22T06:01:25;23.80;99.90
13976;DHT22;7062;49.792;9.946;2023-06-22T06:03:53;23.80;99.90
13976;DHT22;7062;49.792;9.946;2023-06-22T06:06:19;23.90;99.90
13976;DHT22;7062;49.792;9.946;2023-06-22T06:08:54;23.90;99.90
13976;DHT22;7062;49.792;9.946;2023-06-22T06:11:19;24.00;99.90
13976;DHT22;7062;49.792;9.946;2023-06-22T06:13:45;24.00;99.90
13976;DHT22;7062;49.792;9.946;2023-06-22T06:16:10;24.10;99.90
13976;DHT22;7062;49.792;9.946;2023-06-22T06:18:36;24.10;99.90
13976;DHT22;7062;49.792;9.946;2023-06-22T06:21:03;24.10;99.90
13976;DHT22;7062;49.792;9.946;2023-06-22T06:23:28;24.10;99.90
13976;DHT22;7062;49.792;9.946;2023-06-22T06:25:54;24.10;99.90
13976;DHT22;7062;49.792;9.946;2023-06-22T06:28:20;24.20;99.90
13976;DHT22;7062;49.792;9.946;2023-06-22T06:30:45;24.10;99.90
13976;DHT22;7062;49.792;9.946;2023-06-22T06:33:12;24.20;99.90
13976;DHT22;7062;49.792;9.946;2023-06-22T06:35:38;24.20;99.90
13976;DHT22;7062;49.792;9.946;2023-06-22T06:38:04;24.20;99.90
13976;DHT22;7062;49.792;9.946;2023-06-22T06:40:30;24.30;99.90
13976;DHT22;7062;49.792;9.946;2023-06-22T06:42:55;24.30;99.90
13976;DHT22;7062;49.792;9.946;2023-06-22T06:45:22;24.40;99.90
13976;DHT22;7062;49.792;9.946;2023-06-22T06:47:49;24.40;99.90
13976;DHT22;7062;49.792;9.946;2023-06-22T06:50:15;24.40;99.90
13976;DHT22;7062;49.792;9.946;2023-06-22T06:52:41;24.40;99.90
13976;DHT22;7062;49.792;9.946;2023-06-22T06:55:08;24.40;99.90
13976;DHT22;7062;49.792;9.946;2023-06-22T06:57:37;24.40;99.90
13976;DHT22;7062;49.792;9.946;2023-06-22T07:00:04;24.40;99.90
13976;DHT22;7062;49.792;9.946;2023-06-22T07:02:38;24.50;99.90
13976;DHT22;7062;49.792;9.946;2023-06-22T07:05:05;24.50;99.90
13976;DHT22;7062;49.792;9.946;2023-06-22T07:07:31;24.50;99.90
13976;DHT22;7062;49.792;9.946;2023-06-22T07:09:57;24.60;99.90
13976;DHT22;7062;49.792;9.946;2023-06-22T07:12:22;24.60;99.90
13976;DHT22;7062;49.792;9.946;2023-06-22T07:14:48;24.70;99.90
13976;DHT22;7062;49.792;9.946;2023-06-22T07:17:14;24.70;99.90
13976;DHT22;7062;49.792;9.946;2023-06-22T07:19:39;24.70;99.90
13976;DHT22;7062;49.792;9.946;2023-06-22T07:22:05;24.60;99.90
13976;DHT22;7062;49.792;9.946;2023-06-22T07:24:31;24.70;99.90
13976;DHT22;7062;49.792;9.946;2023-06-22T07:26:58;24.70;99.90
13976;DHT22;7062;49.792;9.946;2023-06-22T07:29:24;25.10;99.90
13976;DHT22;7062;49.792;9.946;2023-06-22T07:31:50;24.80;99.90
13976;DHT22;7062;49.792;9.946;2023-06-22T07:34:19;24.80;99.90
13976;DHT22;7062;49.792;9.946;2023-06-22T07:36:45;24.80;99.90
13976;DHT22;7062;49.792;9.946;2023-06-22T07:39:11;24.80;99.90
13976;DHT22;7062;49.792;9.946;2023-06-22T07:41:39;24.80;99.90
13976;DHT22;7062;49.792;9.946;2023-06-22T07:44:04;24.80;99.90
13976;DHT22;7062;49.792;9.946;2023-06-22T07:46:31;24.80;99.90
13976;DHT22;7062;49.792;9.946;2023-06-22T07:48:57;24.80;99.90
13976;DHT22;7062;49.792;9.946;2023-06-22T07:51:23;24.80;99.90
13976;DHT22;7062;49.792;9.946;2023-06-22T07:53:49;24.90;99.90
13976;DHT22;7062;49.792;9.946;2023-06-22T07:56:15;24.90;99.90
13976;DHT22;7062;49.792;9.946;2023-06-22T07:58:45;25.00;99.90
13976;DHT22;7062;49.792;9.946;2023-06-22T08:01:11;25.00;99.90
13976;DHT22;7062;49.792;9.946;2023-06-22T08:03:37;25.10;99.90
13976;DHT22;7062;49.792;9.946;2023-06-22T08:06:03;25.10;99.90
13976;DHT22;7062;49.792;9.946;2023-06-22T08:08:28;25.10;99.90
13976;DHT22;7062;49.792;9.946;2023-06-22T08:10:54;25.10;99.90
13976;DHT22;7062;49.792;9.946;2023-06-22T08:13:20;25.20;99.90
13976;DHT22;7062;49.792;9.946;2023-06-22T08:15:45;25.20;99.90
13976;DHT22;7062;49.792;9.946;2023-06-22T08:18:11;25.30;99.90
13976;DHT22;7062;49.792;9.946;2023-06-22T08:20:36;25.30;99.90
13976;DHT22;7062;49.792;9.946;2023-06-22T08:23:02;25.30;99.90
13976;DHT22;7062;49.792;9.946;2023-06-22T08:25:32;25.40;99.90
13976;DHT22;7062;49.792;9.946;2023-06-22T08:27:58;25.50;99.90
13976;DHT22;7062;49.792;9.946;2023-06-22T08:30:24;25.50;99.90
13976;DHT22;7062;49.792;9.946;2023-06-22T08:32:49;25.60;99.90
13976;DHT22;7062;49.792;9.946;2023-06-22T08:35:15;25.70;99.90
13976;DHT22;7062;49.792;9.946;2023-06-22T08:37:41;25.70;99.90
13976;DHT22;7062;49.792;9.946;2023-06-22T08:40:10;25.70;99.90
13976;DHT22;7062;49.792;9.946;2023-06-22T08:42:36;25.80;99.90
13976;DHT22;7062;49.792;9.946;2023-06-22T08:45:03;25.90;99.90
13976;DHT22;7062;49.792;9.946;2023-06-22T08:47:29;25.90;99.90
13976;DHT22;7062;49.792;9.946;2023-06-22T08:49:55;26.10;99.90
13976;DHT22;7062;49.792;9.946;2023-06-22T08:52:20;26.20;99.90
13976;DHT22;7062;49.792;9.946;2023-06-22T08:54:47;26.20;99.90
13976;DHT22;7062;49.792;9.946;2023-06-22T08:57:12;26.20;99.90
13976;DHT22;7062;49.792;9.946;2023-06-22T08:59:38;26.20;99.90
13976;DHT22;7062;49.792;9.946;2023-06-22T09:02:05;26.30;99.90
13976;DHT22;7062;49.792;9.946;2023-06-22T09:04:31;26.40;99.90
13976;DHT22;7062;49.792;9.946;2023-06-22T09:07:03;26.50;99.90
13976;DHT22;7062;49.792;9.946;2023-06-22T09:09:28;26.60;99.90
13976;DHT22;7062;49.792;9.946;2023-06-22T09:11:54;26.70;99.90
13976;DHT22;7062;49.792;9.946;2023-06-22T09:14:20;26.70;99.90
13976;DHT22;7062;49.792;9.946;2023-06-22T09:16:45;26.70;99.90
13976;DHT22;7062;49.792;9.946;2023-06-22T09:19:11;26.70;99.90
13976;DHT22;7062;49.792;9.946;2023-06-22T09:21:37;26.80;99.90
13976;DHT22;7062;49.792;9.946;2023-06-22T09:24:03;26.90;99.90
13976;DHT22;7062;49.792;9.946;2023-06-22T09:26:28;26.90;99.90
13976;DHT22;7062;49.792;9.946;2023-06-22T09:28:54;27.00;99.90
13976;DHT22;7062;49.792;9.946;2023-06-22T09:31:20;27.10;99.90
13976;DHT22;7062;49.792;9.946;2023-06-22T09:33:54;27.20;99.90
13976;DHT22;7062;49.792;9.946;2023-06-22T09:36:21;27.30;99.90
13976;DHT22;7062;49.792;9.946;2023-06-22T09:38:47;27.40;99.90
13976;DHT22;7062;49.792;9.946;2023-06-22T09:41:13;27.40;99.90
13976;DHT22;7062;49.792;9.946;2023-06-22T09:43:38;27.50;99.90
13976;DHT22;7062;49.792;9.946;2023-06-22T09:46:04;27.50;99.90
13976;DHT22;7062;49.792;9.946;2023-06-22T09:48:29;27.60;99.90
13976;DHT22;7062;49.792;9.946;2023-06-22T09:50:56;27.80;99.90
13976;DHT22;7062;49.792;9.946;2023-06-22T09:53:21;28.00;99.90
13976;DHT22;7062;49.792;9.946;2023-06-22T09:55:47;28.10;99.90
13976;DHT22;7062;49.792;9.946;2023-06-22T09:58:13;28.10;99.90
13976;DHT22;7062;49.792;9.946;2023-06-22T10:00:38;28.10;99.90
13976;DHT22;7062;49.792;9.946;2023-06-22T10:03:04;28.00;99.90
13976;DHT22;7062;49.792;9.946;2023-06-22T10:05:29;28.20;99.90
13976;DHT22;7062;49.792;9.946;2023-06-22T10:07:55;28.30;99.90
13976;DHT22;7062;49.792;9.946;2023-06-22T10:10:21;28.40;99.90
13976;DHT22;7062;49.792;9.946;2023-06-22T10:12:55;28.60;99.90
13976;DHT22;7062;49.792;9.946;2023-06-22T10:15:22;28.80;99.90
13976;DHT22;7062;49.792;9.946;2023-06-22T10:17:47;28.90;99.90
13976;DHT22;7062;49.792;9.946;2023-06-22T10:20:13;29.00;99.90
13976;DHT22;7062;49.792;9.946;2023-06-22T10:22:44;29.00;99.90
13976;DHT22;7062;49.792;9.946;2023-06-22T10:25:11;29.00;99.90
13976;DHT22;7062;49.792;9.946;2023-06-22T10:27:37;29.20;99.90
13976;DHT22;7062;49.792;9.946;2023-06-22T10:30:06;29.20;99.90
13976;DHT22;7062;49.792;9.946;2023-06-22T10:32:32;29.50;99.90
13976;DHT22;7062;49.792;9.946;2023-06-22T10:34:58;29.80;99.90
13976;DHT22;7062;49.792;9.946;2023-06-22T10:37:23;29.80;99.90
13976;DHT22;7062;49.792;9.946;2023-06-22T10:39:49;29.90;99.90
13976;DHT22;7062;49.792;9.946;2023-06-22T10:42:15;30.00;99.90
13976;DHT22;7062;49.792;9.946;2023-06-22T10:44:40;30.30;99.90
13976;DHT22;7062;49.792;9.946;2023-06-22T10:47:08;30.30;99.90
13976;DHT22;7062;49.792;9.946;2023-06-22T10:49:34;30.60;99.90
13976;DHT22;7062;49.792;9.946;2023-06-22T10:51:59;30.60;99.90
13976;DHT22;7062;49.792;9.946;2023-06-22T10:54:25;30.50;99.90
13976;DHT22;7062;49.792;9.946;2023-06-22T10:56:51;30.60;99.90
13976;DHT22;7062;49.792;9.946;2023-06-22T10:59:16;30.40;99.90
13976;DHT22;7062;49.792;9.946;2023-06-22T11:01:42;30.40;99.90
13976;DHT22;7062;49.792;9.946;2023-06-22T11:04:08;30.50;99.90
13976;DHT22;7062;49.792;9.946;2023-06-22T11:06:33;30.50;99.90
13976;DHT22;7062;49.792;9.946;2023-06-22T11:08:59;30.50;99.90
13976;DHT22;7062;49.792;9.946;2023-06-22T11:11:25;30.40;99.90
13976;DHT22;7062;49.792;9.946;2023-06-22T11:13:52;30.30;99.90
13976;DHT22;7062;49.792;9.946;2023-06-22T11:16:17;30.50;99.90
13976;DHT22;7062;49.792;9.946;2023-06-22T11:18:43;30.60;99.90
13976;DHT22;7062;49.792;9.946;2023-06-22T11:21:09;30.90;99.90
13976;DHT22;7062;49.792;9.946;2023-06-22T11:23:34;31.00;99.90
13976;DHT22;7062;49.792;9.946;2023-06-22T11:26:00;31.20;99.90
13976;DHT22;7062;49.792;9.946;2023-06-22T11:28:27;31.20;99.90
13976;DHT22;7062;49.792;9.946;2023-06-22T11:30:52;31.30;99.90
13976;DHT22;7062;49.792;9.946;2023-06-22T11:33:18;31.60;99.90
13976;DHT22;7062;49.792;9.946;2023-06-22T11:35:44;32.20;99.90
13976;DHT22;7062;49.792;9.946;2023-06-22T11:38:09;32.50;99.90
13976;DHT22;7062;49.792;9.946;2023-06-22T11:40:35;32.60;99.90
13976;DHT22;7062;49.792;9.946;2023-06-22T11:43:01;32.70;99.80
13976;DHT22;7062;49.792;9.946;2023-06-22T11:45:27;32.80;99.30
13976;DHT22;7062;49.792;9.946;2023-06-22T11:47:53;32.80;99.50
13976;DHT22;7062;49.792;9.946;2023-06-22T11:50:18;32.80;99.60
13976;DHT22;7062;49.792;9.946;2023-06-22T11:52:44;32.90;99.50
13976;DHT22;7062;49.792;9.946;2023-06-22T11:55:10;33.00;98.80
13976;DHT22;7062;49.792;9.946;2023-06-22T11:57:36;33.10;98.70
13976;DHT22;7062;49.792;9.946;2023-06-22T12:00:05;33.20;98.60
13976;DHT22;7062;49.792;9.946;2023-06-22T12:02:32;33.50;98.20
13976;DHT22;7062;49.792;9.946;2023-06-22T12:04:57;33.60;98.10
13976;DHT22;7062;49.792;9.946;2023-06-22T12:07:23;33.80;97.70
13976;DHT22;7062;49.792;9.946;2023-06-22T12:09:49;34.30;96.70
13976;DHT22;7062;49.792;9.946;2023-06-22T12:12:15;34.40;96.40
13976;DHT22;7062;49.792;9.946;2023-06-22T12:14:40;34.60;95.90
13976;DHT22;7062;49.792;9.946;2023-06-22T12:17:06;34.40;96.10
13976;DHT22;7062;49.792;9.946;2023-06-22T12:19:32;34.00;96.10
13976;DHT22;7062;49.792;9.946;2023-06-22T12:21:57;33.60;96.30
13976;DHT22;7062;49.792;9.946;2023-06-22T12:24:23;33.30;96.70
13976;DHT22;7062;49.792;9.946;2023-06-22T12:26:49;33.30;96.70
13976;DHT22;7062;49.792;9.946;2023-06-22T12:29:15;33.40;96.40
13976;DHT22;7062;49.792;9.946;2023-06-22T12:31:40;33.70;96.00
13976;DHT22;7062;49.792;9.946;2023-06-22T12:34:07;33.80;95.90
13976;DHT22;7062;49.792;9.946;2023-06-22T12:36:32;33.70;95.70
13976;DHT22;7062;49.792;9.946;2023-06-22T12:38:58;33.60;96.20
13976;DHT22;7062;49.792;9.946;2023-06-22T12:41:24;33.60;96.30
13976;DHT22;7062;49.792;9.946;2023-06-22T12:43:49;33.90;96.10
13976;DHT22;7062;49.792;9.946;2023-06-22T12:46:15;34.00;95.90
13976;DHT22;7062;49.792;9.946;2023-06-22T12:48:40;34.00;95.60
13976;DHT22;7062;49.792;9.946;2023-06-22T12:51:08;33.60;95.70
13976;DHT22;7062;49.792;9.946;2023-06-22T12:53:35;33.40;96.00
13976;DHT22;7062;49.792;9.946;2023-06-22T12:56:00;33.20;96.10
13976;DHT22;7062;49.792;9.946;2023-06-22T12:58:26;33.00;96.50
13976;DHT22;7062;49.792;9.946;2023-06-22T13:00:51;32.80;96.70
13976;DHT22;7062;49.792;9.946;2023-06-22T13:03:17;32.50;96.70
13976;DHT22;7062;49.792;9.946;2023-06-22T13:05:43;32.40;97.30
13976;DHT22;7062;49.792;9.946;2023-06-22T13:08:08;32.20;97.20
13976;DHT22;7062;49.792;9.946;2023-06-22T13:10:34;32.10;97.70
13976;DHT22;7062;49.792;9.946;2023-06-22T13:13:00;32.00;97.90
13976;DHT22;7062;49.792;9.946;2023-06-22T13:15:29;31.90;97.90
13976;DHT22;7062;49.792;9.946;2023-06-22T13:17:55;31.80;98.00
13976;DHT22;7062;49.792;9.946;2023-06-22T13:20:21;31.80;98.50
13976;DHT22;7062;49.792;9.946;2023-06-22T13:22:46;31.70;98.70
13976;DHT22;7062;49.792;9.946;2023-06-22T13:25:12;31.50;98.80
13976;DHT22;7062;49.792;9.946;2023-06-22T13:27:39;31.40;99.00
13976;DHT22;7062;49.792;9.946;2023-06-22T13:30:06;31.40;98.80
13976;DHT22;7062;49.792;9.946;2023-06-22T13:32:31;31.30;98.80
13976;DHT22;7062;49.792;9.946;2023-06-22T13:34:57;31.20;99.40
13976;DHT22;7062;49.792;9.946;2023-06-22T13:37:23;31.10;99.00
13976;DHT22;7062;49.792;9.946;2023-06-22T13:39:48;31.10;99.00
13976;DHT22;7062;49.792;9.946;2023-06-22T13:42:14;31.10;99.60
13976;DHT22;7062;49.792;9.946;2023-06-22T13:44:40;31.00;99.90
13976;DHT22;7062;49.792;9.946;2023-06-22T13:47:06;30.90;99.90
13976;DHT22;7062;49.792;9.946;2023-06-22T13:49:32;30.90;99.90
13976;DHT22;7062;49.792;9.946;2023-06-22T13:51:57;30.90;99.90
13976;DHT22;7062;49.792;9.946;2023-06-22T13:54:23;30.80;99.90
13976;DHT22;7062;49.792;9.946;2023-06-22T13:56:48;30.80;99.90
13976;DHT22;7062;49.792;9.946;2023-06-22T13:59:14;30.80;99.90
13976;DHT22;7062;49.792;9.946;2023-06-22T14:01:40;30.80;99.90
13976;DHT22;7062;49.792;9.946;2023-06-22T14:04:06;30.80;99.90
13976;DHT22;7062;49.792;9.946;2023-06-22T14:06:32;30.80;99.90
13976;DHT22;7062;49.792;9.946;2023-06-22T14:08:57;30.70;99.90
13976;DHT22;7062;49.792;9.946;2023-06-22T14:11:24;30.70;99.90
13976;DHT22;7062;49.792;9.946;2023-06-22T14:13:49;30.60;99.90
13976;DHT22;7062;49.792;9.946;2023-06-22T14:16:15;30.60;99.90
13976;DHT22;7062;49.792;9.946;2023-06-22T14:18:41;30.80;99.90
13976;DHT22;7062;49.792;9.946;2023-06-22T14:21:07;30.70;99.90
13976;DHT22;7062;49.792;9.946;2023-06-22T14:23:33;30.70;99.90
13976;DHT22;7062;49.792;9.946;2023-06-22T14:25:58;30.80;99.90
13976;DHT22;7062;49.792;9.946;2023-06-22T14:28:24;30.70;99.90
13976;DHT22;7062;49.792;9.946;2023-06-22T14:30:50;30.90;99.90
13976;DHT22;7062;49.792;9.946;2023-06-22T14:33:15;31.30;99.90
13976;DHT22;7062;49.792;9.946;2023-06-22T14:35:41;31.80;99.90
13976;DHT22;7062;49.792;9.946;2023-06-22T14:38:06;31.70;99.80
13976;DHT22;7062;49.792;9.946;2023-06-22T14:40:32;31.70;99.80
13976;DHT22;7062;49.792;9.946;2023-06-22T14:42:58;31.60;99.90
13976;DHT22;7062;49.792;9.946;2023-06-22T14:45:24;31.50;99.90
13976;DHT22;7062;49.792;9.946;2023-06-22T14:47:50;31.50;99.90
13976;DHT22;7062;49.792;9.946;2023-06-22T14:50:16;31.60;99.90
13976;DHT22;7062;49.792;9.946;2023-06-22T14:52:44;31.70;99.60
13976;DHT22;7062;49.792;9.946;2023-06-22T14:55:09;31.60;99.30
13976;DHT22;7062;49.792;9.946;2023-06-22T14:57:35;31.60;99.50
13976;DHT22;7062;49.792;9.946;2023-06-22T15:00:01;31.70;98.90
13976;DHT22;7062;49.792;9.946;2023-06-22T15:02:27;31.90;97.80
13976;DHT22;7062;49.792;9.946;2023-06-22T15:04:53;32.00;97.30
13976;DHT22;7062;49.792;9.946;2023-06-22T15:07:19;32.00;97.30
13976;DHT22;7062;49.792;9.946;2023-06-22T15:09:45;31.90;98.10
13976;DHT22;7062;49.792;9.946;2023-06-22T15:12:11;31.80;98.00
13976;DHT22;7062;49.792;9.946;2023-06-22T15:14:41;31.90;97.90
13976;DHT22;7062;49.792;9.946;2023-06-22T15:17:07;32.20;96.30
13976;DHT22;7062;49.792;9.946;2023-06-22T15:19:39;32.40;96.50
13976;DHT22;7062;49.792;9.946;2023-06-22T15:22:06;32.40;96.80
13976;DHT22;7062;49.792;9.946;2023-06-22T15:24:32;32.40;96.30
13976;DHT22;7062;49.792;9.946;2023-06-22T15:26:58;32.40;95.90
13976;DHT22;7062;49.792;9.946;2023-06-22T15:29:24;32.40;96.20
13976;DHT22;7062;49.792;9.946;2023-06-22T15:31:50;32.50;94.60
13976;DHT22;7062;49.792;9.946;2023-06-22T15:34:16;32.60;94.70
13976;DHT22;7062;49.792;9.946;2023-06-22T15:36:41;32.80;94.90
13976;DHT22;7062;49.792;9.946;2023-06-22T15:39:07;32.80;95.00
13976;DHT22;7062;49.792;9.946;2023-06-22T15:41:33;32.90;94.00
13976;DHT22;7062;49.792;9.946;2023-06-22T15:43:58;32.90;93.70
13976;DHT22;7062;49.792;9.946;2023-06-22T15:46:24;32.80;92.70
13976;DHT22;7062;49.792;9.946;2023-06-22T15:48:50;32.70;93.30
13976;DHT22;7062;49.792;9.946;2023-06-22T15:51:15;32.70;93.00